Time;durP1;ratioP1;P1;durP2;ratioP2;P2;SDS_P1;SDS_P2;PMS_P1;PMS_P2;Temp;Humidity;BMP_temperature;BMP_pressure;BME280_temperature;BME280_humidity;BME280_pressure;Samples;Min_cycle;Max_cycle;Signal;HPM_P1;HPM_P2
2024/01/27 00:00:15;;;;;;;6.47;2.28;;;5.80;99.90;;;;;;4158305;28;20075;-77
2024/01/27 00:02:16;;;;;;;9.88;2.97;;;5.80;99.90;;;;;;4158335;28;20525;-77
2024/01/27 00:04:16;;;;;;;9.55;2.88;;;5.80;99.90;;;;;;4159560;28;20083;-77
2024/01/27 00:06:17;;;;;;;8.27;2.60;;;5.80;99.90;;;;;;4159290;28;20400;-76
2024/01/27 00:08:18;;;;;;;11.30;2.88;;;5.80;99.90;;;;;;4159653;28;20484;-78
2024/01/27 00:10:18;;;;;;;13.15;3.28;;;5.80;99.90;;;;;;4158157;28;20514;-77
2024/01/27 00:12:19;;;;;;;10.77;2.78;;;5.80;99.90;;;;;;4159755;28;20060;-78
2024/01/27 00:14:19;;;;;;;10.70;3.00;;;5.80;99.90;;;;;;4142269;28;20421;-76
2024/01/27 00:16:20;;;;;;;10.63;3.10;;;5.80;99.90;;;;;;4159025;28;20462;-77
2024/01/27 00:18:21;;;;;;;10.95;3.08;;;5.80;99.90;;;;;;4159350;28;20116;-76
2024/01/27 00:20:21;;;;;;;10.00;3.00;;;5.80;99.90;;;;;;4158848;28;20375;-77
2024/01/27 00:22:22;;;;;;;8.40;2.88;;;5.80;99.90;;;;;;4159359;28;20033;-75
2024/01/27 00:24:22;;;;;;;7.13;2.63;;;5.80;99.90;;;;;;4159407;28;20030;-77
2024/01/27 00:26:23;;;;;;;12.82;2.95;;;5.80;99.90;;;;;;4157754;28;20473;-77
2024/01/27 00:28:24;;;;;;;8.60;2.95;;;5.80;99.90;;;;;;4159323;28;20477;-78
2024/01/27 00:30:25;;;;;;;8.45;2.63;;;5.80;99.90;;;;;;4158383;28;20038;-77
2024/01/27 00:32:26;;;;;;;10.75;3.10;;;5.80;99.90;;;;;;4159366;28;20103;-77
2024/01/27 00:34:26;;;;;;;11.13;3.70;;;5.80;99.90;;;;;;4159276;28;20034;-75
2024/01/27 00:36:27;;;;;;;13.98;3.67;;;5.70;99.90;;;;;;4158349;28;20613;-77
2024/01/27 00:38:28;;;;;;;8.40;3.15;;;5.70;99.90;;;;;;4159307;28;20034;-76
2024/01/27 00:40:29;;;;;;;9.45;3.05;;;5.70;99.90;;;;;;4159885;28;20029;-77
2024/01/27 00:42:29;;;;;;;10.45;2.90;;;5.70;99.90;;;;;;4145493;28;20507;-77
2024/01/27 00:44:30;;;;;;;12.65;3.20;;;5.70;99.90;;;;;;4162893;28;20033;-77
2024/01/27 00:46:30;;;;;;;10.13;3.10;;;5.70;99.90;;;;;;4162112;28;20446;-77
2024/01/27 00:48:31;;;;;;;11.98;3.10;;;5.70;99.90;;;;;;4162709;28;20431;-77
2024/01/27 00:50:31;;;;;;;9.75;3.22;;;5.60;99.90;;;;;;4162097;28;20380;-77
2024/01/27 00:52:32;;;;;;;9.45;3.08;;;5.60;99.90;;;;;;4162055;28;20041;-72
2024/01/27 00:54:32;;;;;;;11.30;2.50;;;5.60;99.90;;;;;;4162347;28;20124;-71
2024/01/27 00:56:33;;;;;;;9.38;3.20;;;5.60;99.90;;;;;;4161223;28;20395;-73
2024/01/27 00:58:34;;;;;;;9.57;3.03;;;5.60;99.90;;;;;;4162434;28;20380;-72
2024/01/27 01:00:35;;;;;;;9.88;3.38;;;5.60;99.90;;;;;;4161932;28;20030;-72
2024/01/27 01:02:37;;;;;;;9.70;3.38;;;5.60;99.90;;;;;;4161690;28;20029;-74
2024/01/27 01:04:37;;;;;;;13.32;3.90;;;5.60;99.90;;;;;;4162847;28;20061;-72
2024/01/27 01:06:41;;;;;;;13.07;2.88;;;5.60;99.90;;;;;;4161868;28;20029;-72
2024/01/27 01:08:41;;;;;;;9.32;2.65;;;5.60;99.90;;;;;;4162160;28;20029;-72
2024/01/27 01:10:42;;;;;;;13.40;3.92;;;5.60;99.90;;;;;;4160785;28;20048;-72
2024/01/27 01:12:43;;;;;;;9.60;3.17;;;5.50;99.90;;;;;;4159191;28;20090;-72
2024/01/27 01:14:43;;;;;;;10.27;2.88;;;5.60;99.90;;;;;;4162517;28;20432;-72
2024/01/27 01:16:44;;;;;;;10.70;3.50;;;5.50;99.90;;;;;;4161226;28;20497;-74
2024/01/27 01:18:44;;;;;;;15.65;3.58;;;5.50;99.90;;;;;;4161449;28;20475;-72
2024/01/27 01:20:45;;;;;;;13.07;3.40;;;5.50;99.90;;;;;;4158384;28;20406;-73
2024/01/27 01:22:46;;;;;;;8.65;2.90;;;5.50;99.90;;;;;;4160425;28;20540;-72
2024/01/27 01:24:46;;;;;;;8.32;3.53;;;5.50;99.90;;;;;;4161848;28;20398;-73
2024/01/27 01:26:47;;;;;;;16.65;3.08;;;5.50;99.90;;;;;;4144051;28;20466;-73
2024/01/27 01:28:47;;;;;;;9.95;2.85;;;5.50;99.90;;;;;;4162197;28;20052;-72
2024/01/27 01:30:49;;;;;;;11.38;3.75;;;5.40;99.90;;;;;;4161030;28;20033;-72
2024/01/27 01:32:51;;;;;;;10.88;3.17;;;5.40;99.90;;;;;;4160346;28;20527;-72
2024/01/27 01:34:51;;;;;;;8.55;3.22;;;5.40;99.90;;;;;;4162220;28;20042;-73
2024/01/27 01:36:54;;;;;;;8.30;3.15;;;5.40;99.90;;;;;;4161704;28;20396;-73
2024/01/27 01:38:54;;;;;;;15.65;3.60;;;5.40;99.90;;;;;;4144261;28;20034;-74
2024/01/27 01:40:55;;;;;;;12.68;3.80;;;5.40;99.90;;;;;;4155933;28;20376;-72
2024/01/27 01:42:55;;;;;;;14.63;3.58;;;5.40;99.90;;;;;;4161565;28;20033;-73
2024/01/27 01:44:56;;;;;;;10.23;2.85;;;5.40;99.90;;;;;;4158251;28;20038;-72
2024/01/27 01:46:58;;;;;;;9.52;2.95;;;5.40;99.90;;;;;;4159759;28;20029;-72
2024/01/27 01:48:59;;;;;;;11.52;3.33;;;5.40;99.90;;;;;;4161748;28;20041;-74
2024/01/27 01:51:00;;;;;;;11.45;3.20;;;5.40;99.90;;;;;;4159872;28;20043;-72
2024/01/27 01:53:01;;;;;;;8.65;2.92;;;5.40;99.90;;;;;;4161268;28;20073;-76
2024/01/27 01:55:02;;;;;;;9.20;2.90;;;5.40;99.90;;;;;;4161581;28;20045;-76
2024/01/27 01:57:03;;;;;;;9.95;3.08;;;5.40;99.90;;;;;;4160469;28;20037;-77
2024/01/27 01:59:04;;;;;;;12.77;3.10;;;5.40;99.90;;;;;;4160519;28;20052;-78
2024/01/27 02:01:04;;;;;;;10.88;3.90;;;5.40;99.90;;;;;;4158202;28;20416;-77
2024/01/27 02:03:09;;;;;;;9.65;3.03;;;5.40;99.90;;;;;;4161693;28;20487;-77
2024/01/27 02:05:11;;;;;;;8.60;3.20;;;5.30;99.90;;;;;;4159769;28;20076;-76
2024/01/27 02:07:12;;;;;;;7.03;3.30;;;5.30;99.90;;;;;;4160105;28;20133;-77
2024/01/27 02:09:12;;;;;;;10.18;4.05;;;5.30;99.90;;;;;;4160900;28;20033;-77
2024/01/27 02:11:13;;;;;;;9.05;3.83;;;5.30;99.90;;;;;;4142383;28;20061;-78
2024/01/27 02:13:21;;;;;;;13.65;3.35;;;5.30;99.90;;;;;;4143913;28;20026;-76
2024/01/27 02:15:21;;;;;;;11.25;3.17;;;5.30;99.90;;;;;;4160832;28;20064;-77
2024/01/27 02:17:22;;;;;;;11.93;3.42;;;5.30;99.90;;;;;;4143904;28;20423;-76
2024/01/27 02:19:23;;;;;;;9.07;3.22;;;5.30;99.90;;;;;;4160624;28;20045;-77
2024/01/27 02:21:24;;;;;;;11.88;3.58;;;5.30;99.90;;;;;;4159948;28;20395;-77
2024/01/27 02:23:24;;;;;;;9.52;3.40;;;5.30;99.90;;;;;;4164503;28;20037;-77
2024/01/27 02:25:25;;;;;;;9.73;3.33;;;5.20;99.90;;;;;;4142399;28;20096;-77
2024/01/27 02:27:26;;;;;;;14.25;3.63;;;5.20;99.90;;;;;;4143715;28;20030;-76
2024/01/27 02:29:27;;;;;;;9.63;3.58;;;5.20;99.90;;;;;;4160806;28;20120;-77
2024/01/27 02:31:28;;;;;;;11.00;3.50;;;5.20;99.90;;;;;;4143056;28;20088;-77
2024/01/27 02:33:29;;;;;;;6.10;2.95;;;5.20;99.90;;;;;;4160859;28;20499;-76
2024/01/27 02:35:30;;;;;;;11.50;3.67;;;5.20;99.90;;;;;;4160387;28;20160;-77
2024/01/27 02:37:30;;;;;;;8.25;3.08;;;5.10;99.90;;;;;;4154701;28;20411;-77
2024/01/27 02:39:31;;;;;;;12.25;4.28;;;5.20;99.90;;;;;;4156272;28;20042;-77
2024/01/27 02:41:37;;;;;;;8.75;3.33;;;5.10;99.90;;;;;;4159390;28;20034;-77
2024/01/27 02:43:38;;;;;;;9.00;3.33;;;5.10;99.90;;;;;;4159722;28;20040;-77
2024/01/27 02:45:39;;;;;;;8.80;3.03;;;5.10;99.90;;;;;;4140659;28;20034;-78
2024/01/27 02:47:39;;;;;;;12.02;3.20;;;5.10;99.90;;;;;;4158805;28;20028;-77
2024/01/27 02:49:41;;;;;;;10.32;3.53;;;5.10;99.90;;;;;;4158821;28;20060;-77
2024/01/27 02:51:41;;;;;;;12.27;3.78;;;5.10;99.90;;;;;;4156571;28;20037;-78
2024/01/27 02:53:42;;;;;;;10.18;3.47;;;5.00;99.90;;;;;;4154980;28;21067;-77
2024/01/27 02:55:42;;;;;;;12.15;3.60;;;5.10;99.90;;;;;;4159376;28;20040;-77
2024/01/27 02:57:43;;;;;;;10.00;3.38;;;5.00;99.90;;;;;;4158103;28;20045;-77
2024/01/27 02:59:47;;;;;;;13.18;3.47;;;5.00;99.90;;;;;;4155049;28;20117;-77
2024/01/27 03:01:47;;;;;;;9.30;2.92;;;5.00;99.90;;;;;;4158457;28;20112;-78
2024/01/27 03:03:48;;;;;;;18.02;3.97;;;5.00;99.90;;;;;;4158272;28;20390;-72
2024/01/27 03:05:48;;;;;;;11.85;3.63;;;5.00;99.90;;;;;;4142349;28;20053;-72
2024/01/27 03:07:49;;;;;;;11.25;3.97;;;5.00;99.90;;;;;;4160756;28;20068;-72
2024/01/27 03:09:50;;;;;;;9.80;3.42;;;5.00;99.90;;;;;;4160211;28;20376;-72
2024/01/27 03:11:50;;;;;;;11.43;3.67;;;5.00;99.90;;;;;;4142352;28;20105;-74
2024/01/27 03:13:51;;;;;;;12.32;4.18;;;5.00;99.90;;;;;;4160555;28;20297;-72
2024/01/27 03:15:52;;;;;;;16.23;4.50;;;4.90;99.90;;;;;;4159588;28;20091;-72
2024/01/27 03:17:52;;;;;;;6.25;3.05;;;4.90;99.90;;;;;;4143067;28;20110;-72
2024/01/27 03:19:53;;;;;;;17.05;3.75;;;4.90;99.90;;;;;;4142738;28;20535;-72
2024/01/27 03:21:53;;;;;;;7.85;3.25;;;4.90;99.90;;;;;;4158741;28;20434;-74
2024/01/27 03:23:54;;;;;;;10.52;3.78;;;4.90;99.90;;;;;;4160551;28;20026;-73
2024/01/27 03:25:55;;;;;;;13.52;3.67;;;4.90;99.90;;;;;;4158099;28;20573;-73
2024/01/27 03:27:55;;;;;;;13.65;4.38;;;4.90;99.90;;;;;;4160491;28;20395;-73
2024/01/27 03:30:00;;;;;;;9.73;3.50;;;4.80;99.90;;;;;;4158903;28;20049;-72
2024/01/27 03:32:00;;;;;;;11.43;3.80;;;4.80;99.90;;;;;;4141654;28;20069;-73
2024/01/27 03:34:02;;;;;;;11.15;3.55;;;4.80;99.90;;;;;;4160087;28;20376;-76
2024/01/27 03:36:03;;;;;;;12.17;3.47;;;4.70;99.90;;;;;;4159152;28;20506;-77
2024/01/27 03:38:03;;;;;;;9.75;3.20;;;4.70;99.90;;;;;;4159941;28;20033;-76
2024/01/27 03:40:04;;;;;;;12.65;3.90;;;4.80;99.90;;;;;;4159557;28;20036;-75
2024/01/27 03:42:05;;;;;;;8.75;3.58;;;4.70;99.90;;;;;;4159667;28;20491;-77
2024/01/27 03:44:06;;;;;;;13.90;3.58;;;4.80;99.90;;;;;;4160245;28;20104;-77
2024/01/27 03:46:06;;;;;;;9.05;3.53;;;4.80;99.90;;;;;;4159141;28;20040;-77
2024/01/27 03:48:07;;;;;;;6.30;3.15;;;4.80;99.90;;;;;;4159963;28;20041;-76
2024/01/27 03:50:08;;;;;;;11.57;4.18;;;4.80;99.90;;;;;;4159204;28;20037;-76
2024/01/27 03:52:09;;;;;;;9.73;4.07;;;4.80;99.90;;;;;;4159559;28;20127;-77
2024/01/27 03:54:10;;;;;;;11.02;3.53;;;4.80;99.90;;;;;;4160100;28;20057;-76
2024/01/27 03:56:14;;;;;;;10.90;3.15;;;4.70;99.90;;;;;;4155480;28;20522;-76
2024/01/27 03:58:14;;;;;;;9.88;3.75;;;4.60;99.90;;;;;;4159992;28;20037;-77
2024/01/27 04:00:15;;;;;;;12.48;4.18;;;4.70;99.90;;;;;;4141701;28;20034;-77
2024/01/27 04:02:16;;;;;;;9.48;3.47;;;4.70;99.90;;;;;;4156063;28;20546;-77
2024/01/27 04:04:16;;;;;;;11.63;4.03;;;4.60;99.90;;;;;;4159893;28;20042;-77
2024/01/27 04:06:17;;;;;;;10.18;3.38;;;4.70;99.90;;;;;;4157941;28;20029;-77
2024/01/27 04:08:17;;;;;;;9.82;3.63;;;4.60;99.90;;;;;;4140525;28;20030;-77
2024/01/27 04:10:18;;;;;;;10.05;3.58;;;4.60;99.90;;;;;;4158288;28;20461;-75
2024/01/27 04:12:19;;;;;;;14.15;4.05;;;4.60;99.90;;;;;;4159234;28;20064;-77
2024/01/27 04:14:20;;;;;;;10.05;3.58;;;4.60;99.90;;;;;;4159763;28;20465;-76
2024/01/27 04:16:20;;;;;;;10.13;4.10;;;4.60;99.90;;;;;;4157812;28;20524;-76
2024/01/27 04:18:21;;;;;;;7.70;3.40;;;4.60;99.90;;;;;;4159459;28;20067;-77
2024/01/27 04:20:21;;;;;;;9.98;3.42;;;4.60;99.90;;;;;;4158898;28;20384;-77
2024/01/27 04:22:22;;;;;;;9.68;3.40;;;4.60;99.90;;;;;;4142338;28;20033;-76
2024/01/27 04:24:23;;;;;;;18.70;4.70;;;4.50;99.90;;;;;;4159747;28;20033;-76
2024/01/27 04:26:23;;;;;;;13.27;4.13;;;4.60;99.90;;;;;;4158181;28;20025;-77
2024/01/27 04:28:24;;;;;;;10.60;3.42;;;4.50;99.90;;;;;;4158635;28;20443;-76
2024/01/27 04:30:24;;;;;;;10.52;3.92;;;4.50;99.90;;;;;;4158762;28;20464;-76
2024/01/27 04:32:26;;;;;;;10.00;3.47;;;4.50;99.90;;;;;;4159613;28;20400;-77
2024/01/27 04:34:26;;;;;;;18.07;4.23;;;4.60;99.90;;;;;;4159497;28;20025;-77
2024/01/27 04:36:31;;;;;;;11.45;4.10;;;4.50;99.90;;;;;;4158703;28;20145;-77
2024/01/27 04:38:31;;;;;;;14.15;3.80;;;4.50;99.90;;;;;;4159519;28;20048;-76
2024/01/27 04:40:33;;;;;;;12.82;4.28;;;4.50;99.90;;;;;;4158152;28;20459;-76
2024/01/27 04:42:34;;;;;;;8.52;3.92;;;4.50;99.90;;;;;;4159220;28;20037;-78
2024/01/27 04:44:35;;;;;;;7.18;3.47;;;4.50;99.90;;;;;;4159432;28;20034;-77
2024/01/27 04:46:36;;;;;;;7.25;3.55;;;4.50;99.90;;;;;;4158350;28;20036;-77
2024/01/27 04:48:36;;;;;;;7.85;4.00;;;4.60;99.90;;;;;;4159466;28;20033;-77
2024/01/27 04:50:37;;;;;;;11.55;4.03;;;4.50;99.90;;;;;;4158794;28;20406;-77
2024/01/27 04:52:37;;;;;;;10.75;3.47;;;4.60;99.90;;;;;;4159441;28;20406;-76
2024/01/27 04:54:38;;;;;;;12.15;3.92;;;4.60;99.90;;;;;;4158646;28;20399;-77
2024/01/27 04:56:39;;;;;;;11.07;3.38;;;4.60;99.90;;;;;;4158930;28;20494;-77
2024/01/27 04:58:39;;;;;;;11.05;4.32;;;4.60;99.90;;;;;;4159323;28;20041;-77
2024/01/27 05:00:40;;;;;;;12.13;3.95;;;4.50;99.90;;;;;;4150254;28;20033;-77
2024/01/27 05:02:41;;;;;;;15.35;3.85;;;4.60;99.90;;;;;;4158579;28;20053;-77
2024/01/27 05:04:42;;;;;;;9.55;3.80;;;4.60;99.90;;;;;;4159346;28;20053;-76
2024/01/27 05:06:46;;;;;;;9.57;3.53;;;4.50;99.90;;;;;;4158613;28;20502;-77
2024/01/27 05:08:46;;;;;;;9.32;3.55;;;4.50;99.90;;;;;;4159132;28;20033;-76
2024/01/27 05:10:47;;;;;;;9.57;3.60;;;4.50;99.90;;;;;;4158177;28;20029;-78
2024/01/27 05:12:48;;;;;;;11.50;3.95;;;4.50;99.90;;;;;;4158783;28;20382;-77
2024/01/27 05:14:48;;;;;;;10.90;3.75;;;4.50;99.90;;;;;;4158381;28;20503;-77
2024/01/27 05:16:49;;;;;;;15.80;4.60;;;4.50;99.90;;;;;;4157927;28;20510;-77
2024/01/27 05:18:49;;;;;;;10.73;3.67;;;4.50;99.90;;;;;;4159359;28;20433;-77
2024/01/27 05:20:50;;;;;;;12.25;4.38;;;4.50;99.90;;;;;;4158729;28;20466;-77
2024/01/27 05:22:50;;;;;;;10.25;4.28;;;4.50;99.90;;;;;;4159089;28;20037;-77
2024/01/27 05:24:51;;;;;;;10.85;4.07;;;4.50;99.90;;;;;;4158705;28;20545;-73
2024/01/27 05:26:52;;;;;;;7.63;3.58;;;4.50;99.90;;;;;;4161239;28;20041;-72
2024/01/27 05:28:52;;;;;;;8.40;3.88;;;4.40;99.90;;;;;;4161556;28;20399;-72
2024/01/27 05:30:53;;;;;;;12.77;4.07;;;4.40;99.90;;;;;;4143726;28;20501;-72
2024/01/27 05:32:54;;;;;;;10.68;4.10;;;4.40;99.90;;;;;;4161301;28;20033;-75
2024/01/27 05:34:54;;;;;;;16.17;4.68;;;4.40;99.90;;;;;;4162637;28;20048;-74
2024/01/27 05:36:55;;;;;;;12.35;3.85;;;4.40;99.90;;;;;;4161389;28;20553;-72
2024/01/27 05:38:56;;;;;;;14.02;5.22;;;4.40;99.90;;;;;;4161721;28;20522;-73
2024/01/27 05:40:56;;;;;;;11.77;4.13;;;4.40;99.90;;;;;;4161008;28;20025;-72
2024/01/27 05:42:57;;;;;;;15.15;4.35;;;4.40;99.90;;;;;;4160368;28;20037;-72
2024/01/27 05:44:57;;;;;;;11.30;4.13;;;4.40;99.90;;;;;;4162211;28;20033;-72
2024/01/27 05:46:58;;;;;;;12.93;4.20;;;4.40;99.90;;;;;;4159335;28;20128;-73
2024/01/27 05:49:02;;;;;;;13.73;5.10;;;4.40;99.90;;;;;;4157035;28;20121;-72
2024/01/27 05:51:03;;;;;;;12.48;4.88;;;4.40;99.90;;;;;;4159457;28;20032;-73
2024/01/27 05:53:04;;;;;;;13.13;5.28;;;4.30;99.90;;;;;;4159764;28;20454;-72
2024/01/27 05:55:06;;;;;;;13.02;4.80;;;4.30;99.90;;;;;;4160838;28;20038;-72
2024/01/27 05:57:07;;;;;;;15.35;5.18;;;4.30;99.90;;;;;;4160728;28;20041;-71
2024/01/27 05:59:08;;;;;;;24.70;5.75;;;4.30;99.90;;;;;;4161748;28;20034;-71
2024/01/27 06:01:09;;;;;;;14.90;5.93;;;4.30;99.90;;;;;;4160690;28;20483;-72
2024/01/27 06:03:10;;;;;;;12.75;4.68;;;4.40;99.90;;;;;;4160595;28;20434;-72
2024/01/27 06:05:11;;;;;;;11.35;4.57;;;4.30;99.90;;;;;;4161178;28;20036;-73
2024/01/27 06:07:11;;;;;;;11.63;4.78;;;4.30;99.90;;;;;;4161470;28;20449;-73
2024/01/27 06:09:13;;;;;;;11.30;4.78;;;4.30;99.90;;;;;;4159795;28;20030;-72
2024/01/27 06:11:14;;;;;;;13.13;4.78;;;4.30;99.90;;;;;;4160796;28;20136;-73
2024/01/27 06:13:16;;;;;;;13.50;4.53;;;4.30;99.90;;;;;;4161129;28;20056;-72
2024/01/27 06:15:16;;;;;;;14.77;4.80;;;4.30;99.90;;;;;;4143078;28;20030;-72
2024/01/27 06:17:17;;;;;;;11.00;4.05;;;4.30;99.90;;;;;;4161496;28;20052;-72
2024/01/27 06:19:17;;;;;;;14.73;4.63;;;4.30;99.90;;;;;;4161373;28;20029;-72
2024/01/27 06:21:18;;;;;;;9.88;4.05;;;4.30;99.90;;;;;;4160539;28;20041;-72
2024/01/27 06:23:19;;;;;;;12.60;4.75;;;4.30;99.90;;;;;;4137504;28;20023;-72
2024/01/27 06:25:20;;;;;;;11.38;4.55;;;4.20;99.90;;;;;;4160433;28;20065;-73
2024/01/27 06:27:21;;;;;;;14.73;4.67;;;4.20;99.90;;;;;;4160349;28;20112;-72
2024/01/27 06:29:23;;;;;;;11.50;4.30;;;4.20;99.90;;;;;;4160393;28;20280;-72
2024/01/27 06:31:23;;;;;;;11.97;4.07;;;4.20;99.90;;;;;;4153557;28;20038;-72
2024/01/27 06:33:24;;;;;;;10.60;4.32;;;4.20;99.90;;;;;;4161272;28;20506;-72
2024/01/27 06:35:24;;;;;;;13.02;4.32;;;4.10;99.90;;;;;;4142030;28;20034;-72
2024/01/27 06:37:25;;;;;;;15.45;5.90;;;4.10;99.90;;;;;;4159236;28;20049;-73
2024/01/27 06:39:26;;;;;;;11.57;4.65;;;4.20;99.90;;;;;;4156719;28;20100;-75
2024/01/27 06:41:26;;;;;;;14.60;5.13;;;4.10;99.90;;;;;;4160077;28;20069;-72
2024/01/27 06:43:27;;;;;;;9.75;4.53;;;4.10;99.90;;;;;;4160712;28;20560;-73
2024/01/27 06:45:27;;;;;;;13.32;5.57;;;4.10;99.90;;;;;;4159848;28;20036;-72
2024/01/27 06:47:29;;;;;;;9.32;4.72;;;4.10;99.90;;;;;;4158772;28;20506;-73
2024/01/27 06:49:30;;;;;;;11.65;4.40;;;4.10;99.90;;;;;;4141064;28;20040;-72
2024/01/27 06:51:30;;;;;;;13.77;5.10;;;4.10;99.90;;;;;;4159589;28;20418;-73
2024/01/27 06:53:31;;;;;;;9.32;4.28;;;4.10;99.90;;;;;;4134798;28;20393;-72
2024/01/27 06:55:31;;;;;;;13.32;4.82;;;4.10;99.90;;;;;;4141142;28;20041;-73
2024/01/27 06:57:32;;;;;;;17.63;5.70;;;4.10;99.90;;;;;;4157985;28;20037;-72
2024/01/27 06:59:34;;;;;;;16.70;4.90;;;4.10;99.90;;;;;;4158686;28;20402;-73
2024/01/27 07:01:35;;;;;;;12.00;5.35;;;4.10;99.90;;;;;;4125326;28;20105;-73
2024/01/27 07:03:35;;;;;;;10.80;5.07;;;4.10;99.90;;;;;;4159269;28;20026;-72
2024/01/27 07:05:40;;;;;;;24.73;6.57;;;4.10;99.90;;;;;;4141574;28;20436;-73
2024/01/27 07:07:41;;;;;;;15.23;5.93;;;4.10;99.90;;;;;;4159590;28;20506;-72
2024/01/27 07:09:42;;;;;;;18.92;7.15;;;4.00;99.90;;;;;;4160008;28;20044;-72
2024/01/27 07:11:42;;;;;;;14.35;6.53;;;4.00;99.90;;;;;;4141472;28;20499;-72
2024/01/27 07:13:43;;;;;;;21.20;7.15;;;4.00;99.90;;;;;;4141578;28;20033;-75
2024/01/27 07:15:43;;;;;;;22.02;7.25;;;4.00;99.90;;;;;;4160122;28;20391;-77
2024/01/27 07:17:44;;;;;;;19.08;6.45;;;4.00;99.90;;;;;;4160679;28;20045;-77
2024/01/27 07:19:45;;;;;;;19.95;6.80;;;4.00;99.90;;;;;;4143231;28;20491;-77
2024/01/27 07:21:45;;;;;;;13.23;5.70;;;4.00;99.90;;;;;;4142043;28;20396;-77
2024/01/27 07:23:46;;;;;;;17.17;6.25;;;4.00;99.90;;;;;;4159817;28;20033;-80
2024/01/27 07:25:46;;;;;;;17.70;6.22;;;4.00;99.90;;;;;;4141590;28;20479;-73
2024/01/27 07:27:47;;;;;;;14.15;5.40;;;3.90;99.90;;;;;;4158532;28;20471;-74
2024/01/27 07:29:48;;;;;;;14.50;5.45;;;3.90;99.90;;;;;;4159787;28;20037;-74
2024/01/27 07:31:50;;;;;;;14.73;4.80;;;3.90;99.90;;;;;;4158318;28;20117;-74
2024/01/27 07:33:50;;;;;;;22.00;5.50;;;3.90;99.90;;;;;;4158195;28;20030;-74
2024/01/27 07:35:51;;;;;;;20.55;5.88;;;3.90;99.90;;;;;;4141799;28;20026;-74
2024/01/27 07:37:52;;;;;;;19.25;5.78;;;3.90;99.90;;;;;;4159438;28;20080;-74
2024/01/27 07:39:52;;;;;;;20.73;6.25;;;4.00;99.90;;;;;;4157872;28;20033;-74
2024/01/27 07:41:53;;;;;;;14.43;5.38;;;4.00;99.90;;;;;;4142918;28;20117;-74
2024/01/27 07:43:54;;;;;;;15.18;5.20;;;4.00;99.90;;;;;;4142374;28;20038;-73
2024/01/27 07:45:55;;;;;;;13.53;5.43;;;4.00;99.90;;;;;;4159381;28;20029;-73
2024/01/27 07:47:56;;;;;;;11.23;5.25;;;4.00;99.90;;;;;;4159266;28;20276;-73
2024/01/27 07:49:56;;;;;;;12.40;5.22;;;4.10;99.90;;;;;;4160107;28;20499;-73
2024/01/27 07:51:57;;;;;;;16.95;5.88;;;4.10;99.90;;;;;;4158285;28;20465;-74
2024/01/27 07:53:58;;;;;;;19.48;5.93;;;4.10;99.90;;;;;;4157601;28;20033;-74
2024/01/27 07:55:58;;;;;;;14.00;5.65;;;4.10;99.90;;;;;;4158994;28;20464;-74
2024/01/27 07:57:59;;;;;;;18.42;6.15;;;4.10;99.90;;;;;;4159435;28;20033;-73
2024/01/27 08:00:00;;;;;;;15.30;5.30;;;4.10;99.90;;;;;;4159650;28;20025;-74
2024/01/27 08:02:00;;;;;;;10.45;5.22;;;4.20;99.90;;;;;;4141523;28;20042;-74
2024/01/27 08:04:01;;;;;;;15.70;5.93;;;4.50;99.90;;;;;;4159742;28;20033;-74
2024/01/27 08:06:05;;;;;;;13.77;4.90;;;4.60;99.90;;;;;;4158896;28;20033;-77
2024/01/27 08:08:06;;;;;;;16.40;4.90;;;4.80;99.90;;;;;;4159216;28;20040;-78
2024/01/27 08:10:10;;;;;;;16.65;5.57;;;5.10;99.90;;;;;;4124909;28;20479;-76
2024/01/27 08:12:11;;;;;;;14.18;5.07;;;5.40;99.90;;;;;;4158165;28;20762;-78
2024/01/27 08:14:12;;;;;;;14.73;4.97;;;5.70;99.90;;;;;;4158235;28;20048;-78
2024/01/27 08:16:13;;;;;;;17.23;5.15;;;6.00;99.90;;;;;;4141321;28;20038;-78
2024/01/27 08:18:14;;;;;;;20.88;6.20;;;6.30;99.90;;;;;;4159616;28;20030;-78
2024/01/27 08:20:15;;;;;;;15.07;4.68;;;6.50;99.90;;;;;;4158349;28;20380;-77
2024/01/27 08:22:15;;;;;;;12.40;4.57;;;6.70;99.90;;;;;;4157979;28;20410;-78
2024/01/27 08:24:16;;;;;;;14.45;5.00;;;6.90;99.90;;;;;;4157397;28;20060;-78
2024/01/27 08:26:18;;;;;;;14.82;4.97;;;7.20;99.90;;;;;;4157590;28;22208;-76
2024/01/27 08:28:19;;;;;;;14.07;5.45;;;7.30;99.90;;;;;;4156764;28;20026;-78
2024/01/27 08:30:19;;;;;;;14.02;5.22;;;7.50;99.90;;;;;;4158336;28;20126;-77
2024/01/27 08:32:20;;;;;;;19.27;5.35;;;7.70;99.90;;;;;;4148931;28;20025;-77
2024/01/27 08:34:20;;;;;;;19.55;5.38;;;8.10;99.90;;;;;;4140395;28;20033;-78
2024/01/27 08:36:21;;;;;;;13.82;5.35;;;8.30;99.90;;;;;;4158968;28;20026;-73
2024/01/27 08:38:22;;;;;;;13.85;5.32;;;8.40;99.90;;;;;;4153814;28;20579;-73
2024/01/27 08:40:22;;;;;;;15.27;5.03;;;8.50;99.90;;;;;;4140551;28;20042;-74
2024/01/27 08:42:23;;;;;;;16.13;5.28;;;8.80;99.90;;;;;;4158301;28;20041;-73
2024/01/27 08:44:24;;;;;;;15.95;5.72;;;8.90;99.90;;;;;;4158005;28;20545;-73
2024/01/27 08:46:25;;;;;;;17.55;5.72;;;9.10;99.90;;;;;;4158953;28;20163;-72
2024/01/27 08:48:25;;;;;;;12.93;4.80;;;9.30;99.90;;;;;;4159379;28;20495;-73
2024/01/27 08:50:26;;;;;;;12.57;5.70;;;9.30;99.90;;;;;;4158654;28;20033;-72
2024/01/27 08:52:26;;;;;;;14.00;5.38;;;9.50;99.90;;;;;;4158773;28;20049;-72
2024/01/27 08:54:27;;;;;;;15.38;5.40;;;9.70;99.90;;;;;;4155310;28;20375;-73
2024/01/27 08:56:28;;;;;;;15.52;5.55;;;9.90;99.90;;;;;;4158360;28;20540;-74
2024/01/27 08:58:28;;;;;;;15.13;5.25;;;10.10;99.90;;;;;;4155035;28;20172;-74
2024/01/27 09:00:29;;;;;;;16.35;5.13;;;10.20;99.90;;;;;;4159904;28;21138;-72
2024/01/27 09:02:29;;;;;;;12.80;5.10;;;10.40;99.90;;;;;;4161928;28;20033;-73
2024/01/27 09:04:30;;;;;;;13.02;5.03;;;10.50;99.90;;;;;;4159961;28;20041;-73
2024/01/27 09:06:31;;;;;;;15.75;5.63;;;10.70;99.90;;;;;;4144104;28;20116;-73
2024/01/27 09:08:32;;;;;;;12.82;5.13;;;10.60;99.90;;;;;;4161684;28;20033;-73
2024/01/27 09:10:32;;;;;;;13.18;5.00;;;10.70;99.90;;;;;;4160685;28;20463;-73
2024/01/27 09:12:33;;;;;;;14.15;5.35;;;10.80;99.90;;;;;;4162433;28;20441;-74
2024/01/27 09:14:33;;;;;;;12.18;5.43;;;10.90;99.90;;;;;;4144864;28;20399;-74
2024/01/27 09:16:34;;;;;;;13.45;5.20;;;11.10;99.90;;;;;;4155190;28;20030;-74
2024/01/27 09:18:35;;;;;;;14.38;5.78;;;11.00;99.90;;;;;;4162461;28;20096;-74
2024/01/27 09:20:36;;;;;;;18.02;5.80;;;11.20;99.90;;;;;;4160927;28;20033;-74
2024/01/27 09:22:36;;;;;;;16.75;5.65;;;11.30;99.90;;;;;;4160213;28;20467;-74
2024/01/27 09:24:37;;;;;;;12.90;5.30;;;11.30;99.90;;;;;;4162116;28;20030;-74
2024/01/27 09:26:37;;;;;;;12.90;5.72;;;11.30;99.90;;;;;;4161116;28;20395;-74
2024/01/27 09:28:38;;;;;;;14.82;5.78;;;11.40;99.90;;;;;;4162138;28;20041;-75
2024/01/27 09:30:39;;;;;;;15.63;5.53;;;11.40;99.90;;;;;;4159254;28;20099;-74
2024/01/27 09:32:39;;;;;;;13.90;5.22;;;11.40;99.90;;;;;;4162142;28;20038;-74
2024/01/27 09:34:40;;;;;;;14.13;5.65;;;11.40;99.90;;;;;;4161705;28;20037;-74
2024/01/27 09:36:41;;;;;;;16.35;5.45;;;11.30;99.90;;;;;;4161529;28;20068;-74
2024/01/27 09:38:41;;;;;;;13.45;5.32;;;11.30;99.90;;;;;;4159856;28;20044;-74
2024/01/27 09:40:42;;;;;;;15.65;5.80;;;11.20;99.90;;;;;;4161448;28;20033;-74
2024/01/27 09:42:55;;;;;;;12.82;4.63;;;11.20;99.90;;;;;;4160855;28;20030;-74
2024/01/27 09:44:58;;;;;;;11.93;5.18;;;11.20;99.90;;;;;;4161959;28;20037;-74
2024/01/27 09:46:58;;;;;;;14.88;5.43;;;11.30;99.90;;;;;;4160756;28;20033;-75
2024/01/27 09:49:01;;;;;;;16.42;5.68;;;11.30;99.90;;;;;;4161490;28;20456;-74
2024/01/27 09:51:03;;;;;;;10.10;4.80;;;11.20;99.90;;;;;;4159602;28;20527;-74
2024/01/27 09:53:07;;;;;;;13.30;5.50;;;11.10;99.90;;;;;;4160237;28;20049;-74
2024/01/27 09:55:08;;;;;;;16.10;5.22;;;11.10;99.90;;;;;;4157008;28;20033;-75
2024/01/27 09:57:11;;;;;;;15.00;5.43;;;10.90;99.90;;;;;;4161579;28;20037;-74
2024/01/27 09:59:15;;;;;;;13.38;4.95;;;10.70;99.90;;;;;;4144236;28;20038;-74
2024/01/27 10:01:20;;;;;;;13.95;5.47;;;10.70;99.90;;;;;;4156104;28;20068;-74
2024/01/27 10:03:22;;;;;;;11.45;4.95;;;10.70;99.90;;;;;;4161474;28;20037;-74
2024/01/27 10:05:24;;;;;;;12.27;5.35;;;10.60;99.90;;;;;;4160556;28;20068;-74
2024/01/27 10:07:25;;;;;;;15.25;5.15;;;10.60;99.90;;;;;;4156186;28;20510;-74
2024/01/27 10:09:26;;;;;;;15.88;5.45;;;10.50;99.90;;;;;;4160787;28;20045;-74
2024/01/27 10:11:28;;;;;;;12.45;5.10;;;10.40;99.90;;;;;;4160563;28;20394;-74
2024/01/27 10:13:28;;;;;;;16.75;5.30;;;10.30;99.90;;;;;;4161007;28;20034;-74
2024/01/27 10:15:29;;;;;;;14.40;5.88;;;10.30;99.90;;;;;;4159963;28;20438;-74
2024/01/27 10:17:34;;;;;;;10.35;4.70;;;10.30;99.90;;;;;;4159605;28;20498;-74
2024/01/27 10:19:35;;;;;;;16.35;4.68;;;10.10;99.90;;;;;;4141632;28;20033;-75
2024/01/27 10:21:35;;;;;;;13.88;5.22;;;10.10;99.90;;;;;;4141881;28;20113;-74
2024/01/27 10:23:39;;;;;;;18.75;5.85;;;10.00;99.90;;;;;;4159471;28;20030;-74
2024/01/27 10:25:40;;;;;;;13.85;4.90;;;9.90;99.90;;;;;;4159480;28;20117;-74
2024/01/27 10:27:41;;;;;;;14.00;4.90;;;9.90;99.90;;;;;;4144174;28;20034;-74
2024/01/27 10:29:52;;;;;;;13.18;5.05;;;9.80;99.90;;;;;;4160752;28;20045;-75